Data for 06/25/2018

Time Sea-Level Adjusted Pressure Absolute Pressure Temperature Relative Humidity Dew Point   
(mb) (inHg) (mb) (inHg) (C) (F) (%) (C) (F)
00:05 1021 30.15 850 25.1 12.7 54.8 71 7.6 45.7
00:10 1021 30.15 850 25.1 12.4 54.3 72 7.6 45.7
00:15 1021 30.15 850 25.1 12.2 54 73 7.5 45.5
00:20 1021 30.15 850 25.1 12.4 54.3 72 7.5 45.5
00:25 1021 30.15 850 25.1 12.6 54.7 71 7.6 45.6
00:30 1021 30.15 850 25.1 12.5 54.5 72 7.6 45.6
00:35 1021 30.15 850 25.1 12.5 54.5 71 7.5 45.4
00:40 1021 30.15 850 25.1 12.4 54.4 72 7.5 45.5
00:45 1020 30.12 850 25.1 12.3 54.2 71 7.3 45.1
00:50 1020 30.12 850 25.1 12.3 54.2 71 7.3 45.1
00:55 1020 30.12 850 25.1 12.2 54 71 7.2 45
01:00 1020 30.12 850 25.1 12.2 53.9 71 7.2 44.9
01:05 1020 30.12 850 25.1 12.3 54.1 71 7.2 44.9
01:10 1020 30.12 850 25.1 12.1 53.8 71 7.1 44.8
01:15 1020 30.12 850 25.1 11.9 53.4 72 7.1 44.7
01:20 1020 30.12 850 25.1 11.8 53.2 72 6.8 44.3
01:25 1020 30.12 850 25.1 12.1 53.8 70 6.8 44.3
01:30 1020 30.12 850 25.1 12.3 54.2 69 6.9 44.5
01:35 1020 30.12 849 25.07 12.3 54.1 69 6.8 44.3
01:40 1020 30.12 849 25.07 12.3 54.1 69 6.9 44.4
01:45 1020 30.12 849 25.07 12.3 54.1 69 6.9 44.4
01:50 1020 30.12 849 25.07 12.2 53.9 70 6.8 44.3
01:55 1020 30.12 849 25.07 12.2 53.9 70 6.9 44.4
02:00 1020 30.12 849 25.07 12.1 53.7 70 6.8 44.2
02:05 1020 30.12 849 25.07 12 53.6 70 6.8 44.2
02:10 1020 30.12 849 25.07 11.8 53.2 71 6.8 44.3
02:15 1020 30.12 849 25.07 11.4 52.5 73 6.8 44.2
02:20 1020 30.12 849 25.07 11.4 52.5 71 6.4 43.6
02:25 1020 30.12 849 25.07 11.9 53.4 69 6.4 43.6
02:30 1020 30.12 849 25.07 12.3 54.1 68 6.7 44
02:35 1020 30.12 849 25.07 12 53.5 70 6.8 44.2
02:40 1020 30.12 849 25.07 11.6 52.9 72 6.7 44
02:45 1020 30.12 849 25.07 11.4 52.5 72 6.5 43.7
02:50 1020 30.12 849 25.07 11.5 52.7 71 6.5 43.7
02:55 1020 30.12 849 25.07 11.5 52.6 72 6.6 43.9
03:00 1020 30.12 849 25.07 11 51.8 74 6.6 43.9
03:05 1020 30.12 849 25.07 11.2 52.2 72 6.4 43.5
03:10 1019 30.09 849 25.07 11.4 52.4 72 6.6 43.9
03:15 1019 30.09 849 25.07 11.1 52 73 6.6 43.8
03:20 1019 30.09 849 25.07 10.9 51.7 74 6.5 43.7
03:25 1019 30.09 849 25.07 10.9 51.5 74 6.5 43.7
03:30 1019 30.09 849 25.07 10.9 51.7 74 6.5 43.6
03:35 1019 30.09 849 25.07 11.1 52 73 6.5 43.7
03:40 1019 30.09 849 25.07 11.2 52.1 73 6.5 43.7
03:45 1019 30.09 849 25.07 11.2 52.2 73 6.5 43.7
03:50 1019 30.09 849 25.07 11.2 52.1 72 6.4 43.6
03:55 1019 30.09 849 25.07 11.3 52.3 72 6.5 43.7
04:00 1019 30.09 849 25.07 11.3 52.3 72 6.5 43.7
04:05 1019 30.09 849 25.07 11.2 52.1 72 6.4 43.5
04:10 1020 30.12 849 25.07 11.3 52.3 71 6.3 43.4
04:15 1020 30.12 849 25.07 11.9 53.4 67 6.1 42.9
04:20 1020 30.12 849 25.07 12.4 54.3 66 6.2 43.1
04:25 1020 30.12 849 25.07 12.2 53.9 66 6.1 43
04:30 1020 30.12 849 25.07 11.9 53.4 68 6.2 43.2
04:35 1020 30.12 849 25.07 11.7 53.1 69 6.2 43.2
04:40 1019 30.09 849 25.07 11.8 53.3 69 6.3 43.4
04:45 1020 30.12 849 25.07 11.3 52.4 72 6.5 43.6
04:50 1019 30.09 849 25.07 11.1 51.9 72 6.3 43.4
04:55 1019 30.09 849 25.07 11.1 51.9 72 6.1 43
05:00 1019 30.09 849 25.07 11.3 52.3 71 6.2 43.1
05:05 1019 30.09 849 25.07 11.2 52.2 71 6.1 43
05:10 1019 30.09 849 25.07 11.3 52.3 71 6.2 43.2
05:15 1019 30.09 849 25.07 11.1 52 71 6.2 43.1
05:20 1019 30.09 849 25.07 11.1 51.9 71 6 42.9
05:25 1019 30.09 849 25.07 11.2 52.2 71 6.2 43.1
05:30 1019 30.09 849 25.07 11.1 51.9 72 6.2 43.1
05:35 1019 30.09 849 25.07 10.7 51.3 73 6.1 42.9
05:40 1019 30.09 849 25.07 10.4 50.8 74 6 42.9
05:45 1019 30.09 849 25.07 10.2 50.4 74 5.7 42.3
05:50 1019 30.09 849 25.07 10.3 50.6 73 5.8 42.4
05:55 1019 30.09 848 25.04 10.3 50.5 73 5.6 42
06:00 1019 30.09 848 25.04 10.4 50.7 73 5.8 42.4
06:05 1019 30.09 848 25.04 10.4 50.6 73 5.8 42.5
06:10 1019 30.09 848 25.04 10.3 50.5 74 5.8 42.5
06:15 1019 30.09 848 25.04 10.7 51.2 72 5.9 42.7
06:20 1019 30.09 849 25.07 10.7 51.3 72 5.9 42.6
06:25 1019 30.09 849 25.07 10.7 51.3 72 5.9 42.5
06:30 1019 30.09 849 25.07 10.8 51.5 72 6 42.7
06:35 1019 30.09 848 25.04 10.8 51.5 72 6 42.8
06:40 1019 30.09 848 25.04 10.9 51.6 72 6.1 43
06:45 1019 30.09 848 25.04 11.1 51.9 70 5.9 42.6
06:50 1019 30.09 848 25.04 11.4 52.5 69 6.1 42.9
06:55 1019 30.09 848 25.04 11.6 52.9 69 6.2 43.1
07:00 1019 30.09 848 25.04 11.6 52.9 69 6.2 43.2
07:05 1019 30.09 848 25.04 11.7 53.1 71 6.6 43.9
07:10 1019 30.09 848 25.04 12 53.5 70 6.7 44
07:15 1019 30.09 848 25.04 12.2 54 69 6.8 44.2
07:20 1019 30.09 848 25.04 12.6 54.7 67 6.7 44
07:25 1019 30.09 848 25.04 12.8 55 67 6.9 44.5
07:30 1019 30.09 848 25.04 13 55.3 67 7 44.6
07:35 1019 30.09 848 25.04 13.2 55.8 66 7 44.6
07:40 1019 30.09 848 25.04 13.6 56.5 65 7.1 44.8
07:45 1018 30.06 848 25.04 14 57.1 64 7.3 45.1
07:50 1018 30.06 848 25.04 14.3 57.7 62 7.1 44.7
07:55 1018 30.06 848 25.04 14.7 58.5 62 7.6 45.7
08:00 1018 30.06 847 25.01 15.1 59.2 61 7.6 45.7
08:05 1018 30.06 847 25.01 15.4 59.8 58 7.4 45.3
08:10 1018 30.06 847 25.01 15.7 60.2 59 7.9 46.2
08:15 1018 30.06 847 25.01 16.1 61 58 7.8 46.1
08:20 1018 30.06 847 25.01 16.4 61.5 56 7.8 46
08:25 1018 30.06 847 25.01 16.3 61.3 57 7.9 46.2
08:30 1018 30.06 847 25.01 16.8 62.3 56 8 46.4
08:35 1018 30.06 847 25.01 17.8 64 52 8 46.4
08:40 1018 30.06 847 25.01 18.2 64.8 53 8.6 47.4
08:45 1018 30.06 847 25.01 18.5 65.2 51 8.2 46.8
08:50 1018 30.06 847 25.01 18.7 65.7 52 8.7 47.7
08:55 1018 30.06 847 25.01 18.8 65.8 51 8.4 47.2
09:00 1018 30.06 847 25.01 18.8 65.8 53 9 48.3
09:05 1018 30.06 847 25.01 19.4 67 50 8.8 47.8
09:10 1018 30.06 847 25.01 19.1 66.4 50 8.7 47.7
09:15 1018 30.06 847 25.01 19.4 66.8 49 8.6 47.5
09:20 1018 30.06 847 25.01 19.5 67 48 8.4 47.2
09:25 1018 30.06 847 25.01 19.9 67.7 47 8.5 47.3
09:30 1018 30.06 847 25.01 20.5 68.8 48 9.3 48.7
09:35 1018 30.06 847 25.01 20.1 68.1 49 9 48.3
09:40 1018 30.06 847 25.01 20.3 68.5 46 8.5 47.2
09:45 1018 30.06 847 25.01 20.9 69.6 45 8.6 47.5
09:50 1018 30.06 847 25.01 21.6 70.8 43 8.7 47.6
09:55 1017 30.03 847 25.01 21.4 70.5 45 9.1 48.3
10:00 1017 30.03 847 25.01 21.4 70.5 45 9 48.2
10:05 1017 30.03 847 25.01 21.5 70.8 43 8.7 47.7
10:10 1017 30.03 847 25.01 22.1 71.7 41 8.5 47.3
10:15 1017 30.03 847 25.01 22 71.6 41 8.3 47
10:20 1017 30.03 847 25.01 22.4 72.2 41 8.7 47.6
10:25 1017 30.03 847 25.01 22 71.6 40 8.1 46.5
10:30 1017 30.03 847 25.01 21.9 71.4 38 7 44.6
10:35 1017 30.03 847 25.01 22.5 72.4 43 9.4 48.9
10:40 1017 30.03 847 25.01 21.9 71.5 42 8.5 47.4
10:45 1017 30.03 847 25.01 22.3 72.2 41 8.7 47.6
10:50 1017 30.03 847 25.01 22.4 72.2 42 8.9 48
10:55 1017 30.03 847 25.01 22.8 73 37 7.6 45.6
11:00 1017 30.03 847 25.01 22.4 72.3 39 8.1 46.5
11:05 1017 30.03 847 25.01 22.8 73 35 6.8 44.2
11:10 1017 30.03 846 24.98 23.7 74.7 34 7.3 45.2
11:15 1017 30.03 846 24.98 24.2 75.5 34 7.3 45.2
11:20 1017 30.03 846 24.98 24.4 75.9 34 7.6 45.6
11:25 1017 30.03 846 24.98 23.1 73.5 38 8.3 46.9
11:30 1017 30.03 846 24.98 23.2 73.7 34 6.7 44
11:35 1017 30.03 846 24.98 23.2 73.8 33 6.3 43.3
11:40 1017 30.03 846 24.98 23.6 74.5 32 6.4 43.5
11:45 1017 30.03 846 24.98 24 75.1 32 6.7 44
11:50 1017 30.03 846 24.98 23.9 74.9 34 7.2 44.9
11:55 1017 30.03 846 24.98 24.7 76.4 32 6.9 44.5
12:00 1017 30.03 846 24.98 25.4 77.8 31 7.5 45.4
12:05 1017 30.03 846 24.98 24.8 76.6 41 10.7 51.3
12:10 1017 30.03 846 24.98 24 75.2 38 8.9 48
12:15 1017 30.03 846 24.98 24.3 75.8 37 8.9 47.9
12:20 1017 30.03 846 24.98 24.3 75.7 36 8.3 46.9
12:25 1017 30.03 846 24.98 25.3 77.5 34 8.3 47
12:30 1017 30.03 846 24.98 25.3 77.6 33 8.2 46.8
12:35 1017 30.03 846 24.98 24.9 76.9 35 8.5 47.2
12:40 1017 30.03 846 24.98 25.2 77.3 35 9 48.3
12:45 1017 30.03 846 24.98 25.3 77.6 33 8 46.4
12:50 1017 30.03 846 24.98 25.5 77.9 33 8.5 47.3
12:55 1017 30.03 846 24.98 26.1 78.9 32 8.5 47.4
13:00 1017 30.03 846 24.98 26.6 79.8 31 8.4 47.1
13:05 1017 30.03 846 24.98 26.8 80.2 30 8.1 46.5
13:10 1017 30.03 846 24.98 26.4 79.5 31 8.3 47
13:15 1017 30.03 846 24.98 25.8 78.5 32 8.2 46.7
13:20 1017 30.03 846 24.98 26.3 79.4 31 7.9 46.3
13:25 1017 30.03 846 24.98 26.1 79 29 6.7 44.1
13:30 1017 30.03 846 24.98 25.5 77.9 31 7.4 45.4
13:35 1017 30.03 846 24.98 26.7 80.1 26 6 42.8
13:40 1017 30.03 846 24.98 27.3 81.2 27 6.9 44.5
13:45 1017 30.03 846 24.98 26.6 79.9 28 7 44.5
13:50 1017 30.03 846 24.98 27 80.5 27 6.9 44.4
13:55 1016 30 846 24.98 26.8 80.2 28 7.2 45
14:00 1016 30 846 24.98 25.4 77.8 30 6.8 44.2
14:05 1016 30 846 24.98 26.6 79.9 28 6.7 44
14:10 1016 30 846 24.98 26.7 80 26 6 42.9
14:15 1016 30 846 24.98 26.3 79.4 28 6.7 44.1
14:20 1016 30 845 24.95 26.3 79.3 27 6.3 43.3
14:25 1016 30 845 24.95 26 78.8 28 6.3 43.3
14:30 1016 30 845 24.95 26.7 80 27 6.6 43.8
14:35 1016 30 845 24.95 26.9 80.4 25 5.6 42
14:40 1016 30 845 24.95 26.8 80.3 27 6.3 43.4
14:45 1016 30 845 24.95 26.7 80 27 6.2 43.1
14:50 1016 30 845 24.95 27.4 81.2 25 6 42.7
14:55 1016 30 845 24.95 27.6 81.7 25 6.2 43.1
15:00 1016 30 845 24.95 28.1 82.6 25 6.3 43.4
15:05 1016 30 845 24.95 28 82.3 24 6 42.7
15:10 1016 30 845 24.95 28.3 83 24 6.1 43
15:15 1016 30 845 24.95 29.4 84.9 24 7 44.6
15:20 1016 30 845 24.95 28.2 82.7 26 7.4 45.3
15:25 1016 30 845 24.95 27.5 81.4 25 6.1 42.9
15:30 1016 30 845 24.95 28.1 82.6 28 8.1 46.7
15:35 1016 30 845 24.95 27.5 81.6 27 7.3 45.2
15:40 1015 29.97 845 24.95 27.4 81.3 27 7.1 44.9
15:45 1015 29.97 845 24.95 28.3 82.9 25 6.8 44.2
15:50 1015 29.97 845 24.95 28.4 83.1 26 7.4 45.3
15:55 1015 29.97 845 24.95 27.8 82.1 26 6.9 44.5
16:00 1015 29.97 844 24.92 28.1 82.6 26 6.9 44.5
16:05 1015 29.97 844 24.92 27.7 81.8 27 7.2 45
16:10 1015 29.97 844 24.92 27.8 82 25 6.5 43.8
16:15 1015 29.97 844 24.92 27.7 81.8 27 7.3 45.1
16:20 1015 29.97 844 24.92 27.7 81.9 27 7.2 44.9
16:25 1015 29.97 844 24.92 27.7 81.9 26 6.5 43.8
16:30 1015 29.97 844 24.92 27.9 82.2 26 6.9 44.5
16:35 1015 29.97 844 24.92 28.2 82.8 24 6.2 43.2
16:40 1015 29.97 844 24.92 28.7 83.7 23 6.1 43
16:45 1015 29.97 844 24.92 29.1 84.4 25 7.5 45.5
16:50 1015 29.97 844 24.92 28.7 83.7 24 6.4 43.5
16:55 1015 29.97 844 24.92 28.8 83.8 24 6.5 43.7
17:00 1015 29.97 844 24.92 29.4 85 22 6.1 42.9
17:05 1015 29.97 844 24.92 30 86 20 4.8 40.6
17:10 1015 29.97 844 24.92 30 86.1 22 6.3 43.3
17:15 1015 29.97 844 24.92 29.1 84.4 23 6.1 42.9
17:20 1015 29.97 844 24.92 28.8 83.9 23 5.8 42.5
17:25 1015 29.97 844 24.92 28.3 82.9 26 7.5 45.5
17:30 1015 29.97 844 24.92 27.8 82 29 8.2 46.7
17:35 1015 29.97 844 24.92 28 82.5 27 7.4 45.4
17:40 1015 29.97 844 24.92 28.7 83.6 27 7.9 46.2
17:45 1015 29.97 844 24.92 28.6 83.4 27 8.3 46.9
17:50 1014 29.94 844 24.92 28 82.4 27 7.8 46
17:55 1014 29.94 844 24.92 27.9 82.2 28 8 46.4
18:00 1014 29.94 844 24.92 27.6 81.7 28 7.9 46.2
18:05 1014 29.94 844 24.92 27.3 81.1 30 8.4 47.1
18:10 1014 29.94 844 24.92 27.3 81.2 29 7.8 46.1
18:15 1014 29.94 844 24.92 27.6 81.6 28 7.9 46.2
18:20 1014 29.94 844 24.92 26.9 80.4 30 8 46.3
18:25 1014 29.94 843 24.89 26.7 80.1 30 8.2 46.8
18:30 1014 29.94 843 24.89 26.6 79.9 31 8.3 46.9
18:35 1014 29.94 843 24.89 26.5 79.6 32 8.6 47.5
18:40 1014 29.94 843 24.89 26.2 79.2 32 8.5 47.3
18:45 1014 29.94 843 24.89 26.1 79 33 8.8 47.8
18:50 1014 29.94 843 24.89 26.1 78.9 33 8.7 47.6
18:55 1014 29.94 843 24.89 26.1 78.9 32 8.5 47.3
19:00 1014 29.94 843 24.89 26.1 78.9 32 8.3 47
19:05 1014 29.94 843 24.89 26 78.9 33 8.8 47.8
19:10 1014 29.94 843 24.89 25.9 78.7 33 8.5 47.4
19:15 1014 29.94 843 24.89 25.8 78.4 35 9.5 49.2
19:20 1014 29.94 843 24.89 25.6 78 35 9.3 48.7
19:25 1014 29.94 843 24.89 25.5 77.9 34 8.8 47.8
19:30 1014 29.94 843 24.89 25.4 77.6 35 8.9 48.1
19:35 1014 29.94 843 24.89 25.2 77.3 39 10.4 50.7
19:40 1014 29.94 843 24.89 25 76.9 45 12.3 54.1
19:45 1014 29.94 843 24.89 24.7 76.5 45 12.2 54
19:50 1014 29.94 843 24.89 24.5 76.2 48 13.1 55.6
19:55 1013 29.91 843 24.89 24.4 76 40 10 50
20:00 1013 29.91 843 24.89 24.9 76.9 33 7.9 46.1
20:05 1014 29.94 843 24.89 25.2 77.3 30 6.6 43.9
20:10 1014 29.94 843 24.89 25.5 78 27 5.5 41.9
20:15 1014 29.94 843 24.89 25.4 77.7 27 5.3 41.6
20:20 1014 29.94 843 24.89 25.5 77.9 25 4.4 40
20:25 1014 29.94 843 24.89 25.6 78.1 25 4.2 39.6
20:30 1014 29.94 843 24.89 25.6 78 25 4.3 39.7
20:35 1014 29.94 843 24.89 25.5 77.8 25 4 39.3
20:40 1014 29.94 843 24.89 25.6 78 24 3.7 38.7
20:45 1014 29.94 843 24.89 25.4 77.7 26 4.7 40.4
20:50 1014 29.94 843 24.89 25.3 77.5 25 3.8 38.9
20:55 1014 29.94 843 24.89 25.2 77.4 24 3.2 37.8
21:00 1014 29.94 843 24.89 25.3 77.5 23 3.1 37.5
21:05 1014 29.94 843 24.89 25.1 77.1 25 3.7 38.6
21:10 1014 29.94 843 24.89 24.8 76.6 25 3.5 38.2
21:15 1014 29.94 843 24.89 24.5 76.2 25 3.2 37.7
21:20 1014 29.94 843 24.89 24.6 76.3 24 2.9 37.2
21:25 1014 29.94 843 24.89 24.6 76.2 23 2.4 36.3
21:30 1014 29.94 843 24.89 24.7 76.5 26 4.2 39.6
21:35 1015 29.97 844 24.92 24 75.2 30 5.8 42.4
21:40 1015 29.97 844 24.92 23.5 74.2 32 6 42.8
21:45 1015 29.97 844 24.92 23.1 73.7 33 6.1 42.9
21:50 1015 29.97 844 24.92 22.8 73 34 6.5 43.7
21:55 1015 29.97 844 24.92 22.5 72.4 36 6.8 44.2
22:00 1015 29.97 844 24.92 21.9 71.5 39 7.4 45.3
22:05 1015 29.97 844 24.92 21.6 70.9 40 7.5 45.6
22:10 1015 29.97 844 24.92 21.6 70.8 38 7 44.6
22:15 1015 29.97 844 24.92 21.5 70.8 39 7 44.6
22:20 1015 29.97 844 24.92 21.5 70.6 39 7.1 44.7
22:25 1015 29.97 844 24.92 21.3 70.4 38 6.4 43.6
22:30 1015 29.97 844 24.92 21.3 70.3 40 7.2 44.9
22:35 1015 29.97 844 24.92 21 69.8 41 7.5 45.5
22:40 1015 29.97 844 24.92 20.8 69.4 41 7.4 45.3
22:45 1015 29.97 844 24.92 20.7 69.3 41 7.2 45
22:50 1015 29.97 844 24.92 20.5 69 42 7.3 45.1
22:55 1015 29.97 844 24.92 20.4 68.6 42 7.3 45.1
23:00 1015 29.97 844 24.92 20.2 68.4 43 7.6 45.6
23:05 1015 29.97 844 24.92 19.9 67.9 44 7.4 45.2
23:10 1015 29.97 844 24.92 19.8 67.6 45 7.6 45.7
23:15 1015 29.97 844 24.92 19.5 67.2 46 7.6 45.7
23:20 1014 29.94 844 24.92 19.4 66.8 46 7.7 45.9
23:25 1014 29.94 844 24.92 19.2 66.5 47 7.8 46.1
23:30 1015 29.97 844 24.92 18.9 65.9 49 8 46.3
23:35 1015 29.97 844 24.92 18.7 65.6 49 8 46.4
23:40 1015 29.97 844 24.92 18.5 65.3 51 8.2 46.8
23:45 1015 29.97 844 24.92 18.1 64.6 51 8 46.5
23:50 1015 29.97 844 24.92 18.2 64.7 51 8 46.4
23:55 1015 29.97 844 24.92 18.4 65 51 8.1 46.5
24:00 1016 30 845 24.95 18.6 65.5 50 8.2 46.8